sensor_id;sensor_type;location;lat;lon;timestamp;P1;durP1;ratioP1;P2;durP2;ratioP2
70543;SDS011;58097;48.364;-1.224;2023-01-28T00:02:01;15.35;;;8.88;;
70543;SDS011;58097;48.364;-1.224;2023-01-28T00:04:26;16.33;;;8.95;;
70543;SDS011;58097;48.364;-1.224;2023-01-28T00:06:52;13.73;;;7.50;;
70543;SDS011;58097;48.364;-1.224;2023-01-28T00:09:17;11.52;;;7.47;;
70543;SDS011;58097;48.364;-1.224;2023-01-28T00:11:43;15.70;;;7.93;;
70543;SDS011;58097;48.364;-1.224;2023-01-28T00:14:10;12.75;;;6.53;;
70543;SDS011;58097;48.364;-1.224;2023-01-28T00:16:36;11.82;;;7.35;;
70543;SDS011;58097;48.364;-1.224;2023-01-28T00:19:02;12.98;;;7.72;;
70543;SDS011;58097;48.364;-1.224;2023-01-28T00:21:27;10.60;;;6.95;;
70543;SDS011;58097;48.364;-1.224;2023-01-28T00:23:54;18.80;;;7.85;;
70543;SDS011;58097;48.364;-1.224;2023-01-28T00:26:20;13.85;;;8.00;;
70543;SDS011;58097;48.364;-1.224;2023-01-28T00:28:47;10.52;;;7.05;;
70543;SDS011;58097;48.364;-1.224;2023-01-28T00:33:42;11.65;;;7.55;;
70543;SDS011;58097;48.364;-1.224;2023-01-28T00:36:08;21.55;;;8.48;;
70543;SDS011;58097;48.364;-1.224;2023-01-28T00:38:34;12.15;;;7.13;;
70543;SDS011;58097;48.364;-1.224;2023-01-28T00:41:16;13.13;;;7.43;;
70543;SDS011;58097;48.364;-1.224;2023-01-28T00:43:43;13.65;;;6.70;;
70543;SDS011;58097;48.364;-1.224;2023-01-28T00:46:09;19.60;;;7.55;;
70543;SDS011;58097;48.364;-1.224;2023-01-28T00:48:36;9.13;;;6.10;;
70543;SDS011;58097;48.364;-1.224;2023-01-28T00:51:03;13.07;;;6.78;;
70543;SDS011;58097;48.364;-1.224;2023-01-28T00:53:28;10.70;;;6.45;;
70543;SDS011;58097;48.364;-1.224;2023-01-28T00:55:55;12.38;;;7.22;;
70543;SDS011;58097;48.364;-1.224;2023-01-28T00:58:20;10.88;;;6.57;;
70543;SDS011;58097;48.364;-1.224;2023-01-28T01:00:48;11.93;;;6.30;;
70543;SDS011;58097;48.364;-1.224;2023-01-28T01:03:13;13.32;;;6.32;;
70543;SDS011;58097;48.364;-1.224;2023-01-28T01:05:39;11.73;;;7.07;;
70543;SDS011;58097;48.364;-1.224;2023-01-28T01:08:04;10.50;;;6.57;;
70543;SDS011;58097;48.364;-1.224;2023-01-28T01:10:29;11.27;;;6.03;;
70543;SDS011;58097;48.364;-1.224;2023-01-28T01:12:55;10.13;;;5.82;;
70543;SDS011;58097;48.364;-1.224;2023-01-28T01:15:22;7.85;;;5.72;;
70543;SDS011;58097;48.364;-1.224;2023-01-28T01:17:48;12.82;;;5.68;;
70543;SDS011;58097;48.364;-1.224;2023-01-28T01:20:16;10.27;;;6.45;;
70543;SDS011;58097;48.364;-1.224;2023-01-28T01:22:43;9.27;;;5.28;;
70543;SDS011;58097;48.364;-1.224;2023-01-28T01:25:09;9.02;;;5.53;;
70543;SDS011;58097;48.364;-1.224;2023-01-28T01:27:35;7.88;;;4.97;;
70543;SDS011;58097;48.364;-1.224;2023-01-28T01:30:00;6.97;;;4.93;;
70543;SDS011;58097;48.364;-1.224;2023-01-28T01:32:29;10.65;;;5.95;;
70543;SDS011;58097;48.364;-1.224;2023-01-28T01:34:55;7.78;;;4.93;;
70543;SDS011;58097;48.364;-1.224;2023-01-28T01:37:21;9.30;;;4.85;;
70543;SDS011;58097;48.364;-1.224;2023-01-28T01:39:46;16.42;;;6.22;;
70543;SDS011;58097;48.364;-1.224;2023-01-28T01:42:12;11.38;;;4.65;;
70543;SDS011;58097;48.364;-1.224;2023-01-28T01:50:14;4.20;;;3.30;;
70543;SDS011;58097;48.364;-1.224;2023-01-28T01:52:48;13.02;;;4.03;;
70543;SDS011;58097;48.364;-1.224;2023-01-28T01:55:17;10.90;;;4.40;;
70543;SDS011;58097;48.364;-1.224;2023-01-28T01:57:46;5.65;;;4.18;;
70543;SDS011;58097;48.364;-1.224;2023-01-28T02:00:13;8.93;;;4.18;;
70543;SDS011;58097;48.364;-1.224;2023-01-28T02:02:40;10.55;;;5.40;;
70543;SDS011;58097;48.364;-1.224;2023-01-28T02:05:10;8.75;;;3.92;;
70543;SDS011;58097;48.364;-1.224;2023-01-28T02:07:37;4.57;;;3.13;;
70543;SDS011;58097;48.364;-1.224;2023-01-28T02:10:03;4.95;;;3.63;;
70543;SDS011;58097;48.364;-1.224;2023-01-28T02:12:31;8.60;;;4.45;;
70543;SDS011;58097;48.364;-1.224;2023-01-28T02:15:02;4.47;;;3.33;;
70543;SDS011;58097;48.364;-1.224;2023-01-28T02:17:30;6.70;;;3.28;;
70543;SDS011;58097;48.364;-1.224;2023-01-28T02:19:57;7.63;;;3.75;;
70543;SDS011;58097;48.364;-1.224;2023-01-28T02:28:08;7.93;;;3.95;;
70543;SDS011;58097;48.364;-1.224;2023-01-28T02:33:28;10.70;;;4.05;;
70543;SDS011;58097;48.364;-1.224;2023-01-28T02:36:05;9.25;;;4.72;;
70543;SDS011;58097;48.364;-1.224;2023-01-28T02:38:46;9.38;;;4.55;;
70543;SDS011;58097;48.364;-1.224;2023-01-28T02:41:22;6.93;;;4.72;;
70543;SDS011;58097;48.364;-1.224;2023-01-28T02:44:04;5.63;;;4.47;;
70543;SDS011;58097;48.364;-1.224;2023-01-28T02:49:15;7.60;;;4.30;;
70543;SDS011;58097;48.364;-1.224;2023-01-28T03:08:27;8.57;;;5.05;;
70543;SDS011;58097;48.364;-1.224;2023-01-28T03:11:16;7.55;;;5.55;;
70543;SDS011;58097;48.364;-1.224;2023-01-28T03:14:00;9.75;;;5.18;;
70543;SDS011;58097;48.364;-1.224;2023-01-28T03:16:44;9.82;;;5.78;;
70543;SDS011;58097;48.364;-1.224;2023-01-28T03:19:29;11.60;;;5.43;;
70543;SDS011;58097;48.364;-1.224;2023-01-28T03:22:13;7.55;;;4.07;;
70543;SDS011;58097;48.364;-1.224;2023-01-28T03:24:59;16.45;;;5.93;;
70543;SDS011;58097;48.364;-1.224;2023-01-28T03:27:52;7.13;;;4.25;;
70543;SDS011;58097;48.364;-1.224;2023-01-28T03:30:43;14.75;;;5.00;;
70543;SDS011;58097;48.364;-1.224;2023-01-28T03:33:32;6.88;;;4.63;;
70543;SDS011;58097;48.364;-1.224;2023-01-28T03:36:18;8.55;;;5.13;;
70543;SDS011;58097;48.364;-1.224;2023-01-28T03:39:02;6.32;;;4.55;;
70543;SDS011;58097;48.364;-1.224;2023-01-28T03:41:28;9.05;;;4.22;;
70543;SDS011;58097;48.364;-1.224;2023-01-28T03:43:53;8.70;;;4.97;;
70543;SDS011;58097;48.364;-1.224;2023-01-28T03:46:19;9.40;;;5.60;;
70543;SDS011;58097;48.364;-1.224;2023-01-28T03:48:45;10.02;;;4.93;;
70543;SDS011;58097;48.364;-1.224;2023-01-28T03:51:10;7.93;;;4.25;;
70543;SDS011;58097;48.364;-1.224;2023-01-28T03:53:36;10.57;;;5.80;;
70543;SDS011;58097;48.364;-1.224;2023-01-28T03:56:03;15.88;;;5.97;;
70543;SDS011;58097;48.364;-1.224;2023-01-28T03:58:28;12.00;;;5.13;;
70543;SDS011;58097;48.364;-1.224;2023-01-28T04:01:10;8.73;;;6.43;;
70543;SDS011;58097;48.364;-1.224;2023-01-28T04:03:35;19.00;;;7.57;;
70543;SDS011;58097;48.364;-1.224;2023-01-28T04:06:01;10.35;;;6.18;;
70543;SDS011;58097;48.364;-1.224;2023-01-28T04:08:29;9.57;;;6.03;;
70543;SDS011;58097;48.364;-1.224;2023-01-28T04:10:54;15.77;;;6.57;;
70543;SDS011;58097;48.364;-1.224;2023-01-28T04:13:20;8.48;;;5.75;;
70543;SDS011;58097;48.364;-1.224;2023-01-28T04:15:45;9.82;;;6.07;;
70543;SDS011;58097;48.364;-1.224;2023-01-28T04:18:11;8.88;;;5.80;;
70543;SDS011;58097;48.364;-1.224;2023-01-28T04:20:36;7.35;;;6.20;;
70543;SDS011;58097;48.364;-1.224;2023-01-28T04:23:03;9.02;;;4.97;;
70543;SDS011;58097;48.364;-1.224;2023-01-28T04:25:30;10.35;;;5.45;;
70543;SDS011;58097;48.364;-1.224;2023-01-28T04:27:55;12.20;;;5.68;;
70543;SDS011;58097;48.364;-1.224;2023-01-28T04:30:21;9.65;;;6.70;;
70543;SDS011;58097;48.364;-1.224;2023-01-28T04:32:47;9.75;;;6.07;;
70543;SDS011;58097;48.364;-1.224;2023-01-28T04:35:14;11.18;;;5.50;;
70543;SDS011;58097;48.364;-1.224;2023-01-28T04:37:40;9.10;;;5.68;;
70543;SDS011;58097;48.364;-1.224;2023-01-28T04:40:06;8.23;;;5.53;;
70543;SDS011;58097;48.364;-1.224;2023-01-28T04:42:32;7.65;;;5.75;;
70543;SDS011;58097;48.364;-1.224;2023-01-28T04:44:57;10.75;;;5.68;;
70543;SDS011;58097;48.364;-1.224;2023-01-28T04:47:23;8.50;;;5.88;;
70543;SDS011;58097;48.364;-1.224;2023-01-28T04:49:48;13.52;;;7.03;;
70543;SDS011;58097;48.364;-1.224;2023-01-28T04:52:13;14.52;;;6.15;;
70543;SDS011;58097;48.364;-1.224;2023-01-28T04:54:39;9.68;;;4.93;;
70543;SDS011;58097;48.364;-1.224;2023-01-28T04:57:04;10.57;;;6.10;;
70543;SDS011;58097;48.364;-1.224;2023-01-28T04:59:29;9.63;;;5.70;;
70543;SDS011;58097;48.364;-1.224;2023-01-28T05:01:55;10.73;;;6.70;;
70543;SDS011;58097;48.364;-1.224;2023-01-28T05:04:20;13.60;;;5.65;;
70543;SDS011;58097;48.364;-1.224;2023-01-28T05:06:45;14.98;;;6.53;;
70543;SDS011;58097;48.364;-1.224;2023-01-28T05:09:11;9.40;;;6.43;;
70543;SDS011;58097;48.364;-1.224;2023-01-28T05:11:36;13.25;;;6.07;;
70543;SDS011;58097;48.364;-1.224;2023-01-28T05:14:01;13.80;;;6.80;;
70543;SDS011;58097;48.364;-1.224;2023-01-28T05:16:27;14.05;;;6.30;;
70543;SDS011;58097;48.364;-1.224;2023-01-28T05:18:52;10.75;;;5.63;;
70543;SDS011;58097;48.364;-1.224;2023-01-28T05:21:17;13.80;;;6.68;;
70543;SDS011;58097;48.364;-1.224;2023-01-28T05:23:43;12.90;;;6.50;;
70543;SDS011;58097;48.364;-1.224;2023-01-28T05:26:08;12.35;;;6.78;;
70543;SDS011;58097;48.364;-1.224;2023-01-28T05:28:34;13.75;;;7.97;;
70543;SDS011;58097;48.364;-1.224;2023-01-28T05:31:03;11.82;;;7.57;;
70543;SDS011;58097;48.364;-1.224;2023-01-28T05:33:29;14.02;;;7.28;;
70543;SDS011;58097;48.364;-1.224;2023-01-28T05:35:55;8.70;;;6.28;;
70543;SDS011;58097;48.364;-1.224;2023-01-28T05:38:20;17.52;;;7.80;;
70543;SDS011;58097;48.364;-1.224;2023-01-28T05:40:46;11.98;;;7.53;;
70543;SDS011;58097;48.364;-1.224;2023-01-28T05:43:11;12.75;;;7.22;;
70543;SDS011;58097;48.364;-1.224;2023-01-28T05:45:37;10.95;;;7.22;;
70543;SDS011;58097;48.364;-1.224;2023-01-28T05:48:02;12.20;;;6.80;;
70543;SDS011;58097;48.364;-1.224;2023-01-28T05:50:28;10.60;;;6.43;;
70543;SDS011;58097;48.364;-1.224;2023-01-28T05:52:53;13.98;;;6.88;;
70543;SDS011;58097;48.364;-1.224;2023-01-28T05:55:18;10.73;;;7.07;;
70543;SDS011;58097;48.364;-1.224;2023-01-28T05:57:44;13.38;;;7.68;;
70543;SDS011;58097;48.364;-1.224;2023-01-28T06:00:09;13.25;;;6.97;;
70543;SDS011;58097;48.364;-1.224;2023-01-28T06:02:36;13.73;;;8.10;;
70543;SDS011;58097;48.364;-1.224;2023-01-28T06:05:01;18.52;;;7.20;;
70543;SDS011;58097;48.364;-1.224;2023-01-28T06:07:27;21.70;;;8.48;;
70543;SDS011;58097;48.364;-1.224;2023-01-28T06:09:52;16.30;;;7.90;;
70543;SDS011;58097;48.364;-1.224;2023-01-28T06:12:17;15.40;;;7.68;;
70543;SDS011;58097;48.364;-1.224;2023-01-28T06:14:43;20.63;;;7.30;;
70543;SDS011;58097;48.364;-1.224;2023-01-28T06:17:08;18.42;;;8.55;;
70543;SDS011;58097;48.364;-1.224;2023-01-28T06:19:33;16.88;;;7.85;;
70543;SDS011;58097;48.364;-1.224;2023-01-28T06:22:00;14.65;;;7.78;;
70543;SDS011;58097;48.364;-1.224;2023-01-28T06:24:25;11.50;;;7.20;;
70543;SDS011;58097;48.364;-1.224;2023-01-28T06:26:51;11.73;;;7.10;;
70543;SDS011;58097;48.364;-1.224;2023-01-28T06:29:16;21.13;;;8.90;;
70543;SDS011;58097;48.364;-1.224;2023-01-28T06:31:41;15.40;;;8.55;;
70543;SDS011;58097;48.364;-1.224;2023-01-28T06:34:08;13.70;;;8.93;;
70543;SDS011;58097;48.364;-1.224;2023-01-28T06:36:34;16.35;;;8.75;;
70543;SDS011;58097;48.364;-1.224;2023-01-28T06:39:00;19.92;;;8.98;;
70543;SDS011;58097;48.364;-1.224;2023-01-28T06:41:25;14.57;;;9.25;;
70543;SDS011;58097;48.364;-1.224;2023-01-28T06:43:51;20.92;;;9.55;;
70543;SDS011;58097;48.364;-1.224;2023-01-28T06:46:16;16.52;;;8.95;;
70543;SDS011;58097;48.364;-1.224;2023-01-28T06:48:42;22.13;;;9.55;;
70543;SDS011;58097;48.364;-1.224;2023-01-28T06:51:07;22.73;;;10.57;;
70543;SDS011;58097;48.364;-1.224;2023-01-28T06:53:32;35.50;;;13.57;;
70543;SDS011;58097;48.364;-1.224;2023-01-28T06:55:58;44.92;;;16.20;;
70543;SDS011;58097;48.364;-1.224;2023-01-28T06:58:23;35.42;;;12.77;;
70543;SDS011;58097;48.364;-1.224;2023-01-28T07:00:49;44.20;;;15.75;;
70543;SDS011;58097;48.364;-1.224;2023-01-28T07:03:14;30.77;;;12.45;;
70543;SDS011;58097;48.364;-1.224;2023-01-28T07:05:40;23.90;;;10.65;;
70543;SDS011;58097;48.364;-1.224;2023-01-28T07:08:05;19.60;;;10.73;;
70543;SDS011;58097;48.364;-1.224;2023-01-28T07:10:31;25.30;;;11.80;;
70543;SDS011;58097;48.364;-1.224;2023-01-28T07:12:56;23.52;;;12.18;;
70543;SDS011;58097;48.364;-1.224;2023-01-28T07:15:22;25.40;;;12.40;;
70543;SDS011;58097;48.364;-1.224;2023-01-28T07:17:47;20.15;;;11.48;;
70543;SDS011;58097;48.364;-1.224;2023-01-28T07:20:13;20.45;;;11.30;;
70543;SDS011;58097;48.364;-1.224;2023-01-28T07:22:40;22.88;;;10.55;;
70543;SDS011;58097;48.364;-1.224;2023-01-28T07:25:07;22.98;;;10.63;;
70543;SDS011;58097;48.364;-1.224;2023-01-28T07:27:33;21.58;;;12.32;;
70543;SDS011;58097;48.364;-1.224;2023-01-28T07:29:58;17.92;;;10.63;;
70543;SDS011;58097;48.364;-1.224;2023-01-28T07:32:23;20.38;;;11.88;;
70543;SDS011;58097;48.364;-1.224;2023-01-28T07:34:51;19.90;;;10.15;;
70543;SDS011;58097;48.364;-1.224;2023-01-28T07:37:17;19.13;;;10.32;;
70543;SDS011;58097;48.364;-1.224;2023-01-28T07:39:42;20.95;;;11.10;;
70543;SDS011;58097;48.364;-1.224;2023-01-28T07:42:07;24.60;;;12.07;;
70543;SDS011;58097;48.364;-1.224;2023-01-28T07:44:33;20.33;;;10.82;;
70543;SDS011;58097;48.364;-1.224;2023-01-28T07:46:59;21.23;;;11.70;;
70543;SDS011;58097;48.364;-1.224;2023-01-28T07:49:25;19.65;;;10.43;;
70543;SDS011;58097;48.364;-1.224;2023-01-28T07:51:50;21.85;;;12.27;;
70543;SDS011;58097;48.364;-1.224;2023-01-28T07:54:16;18.83;;;11.25;;
70543;SDS011;58097;48.364;-1.224;2023-01-28T07:56:41;22.42;;;11.55;;
70543;SDS011;58097;48.364;-1.224;2023-01-28T07:59:06;23.45;;;11.80;;
70543;SDS011;58097;48.364;-1.224;2023-01-28T08:01:32;21.58;;;11.90;;
70543;SDS011;58097;48.364;-1.224;2023-01-28T08:03:57;26.17;;;12.35;;
70543;SDS011;58097;48.364;-1.224;2023-01-28T08:06:23;30.77;;;13.63;;
70543;SDS011;58097;48.364;-1.224;2023-01-28T08:08:48;27.67;;;13.25;;
70543;SDS011;58097;48.364;-1.224;2023-01-28T08:11:13;22.30;;;12.85;;
70543;SDS011;58097;48.364;-1.224;2023-01-28T08:13:39;19.33;;;11.32;;
70543;SDS011;58097;48.364;-1.224;2023-01-28T08:16:04;23.20;;;12.35;;
70543;SDS011;58097;48.364;-1.224;2023-01-28T08:18:30;23.15;;;13.05;;
70543;SDS011;58097;48.364;-1.224;2023-01-28T08:20:56;22.40;;;11.75;;
70543;SDS011;58097;48.364;-1.224;2023-01-28T08:23:22;23.10;;;11.63;;
70543;SDS011;58097;48.364;-1.224;2023-01-28T08:25:48;25.58;;;13.43;;
70543;SDS011;58097;48.364;-1.224;2023-01-28T08:28:14;26.90;;;13.27;;
70543;SDS011;58097;48.364;-1.224;2023-01-28T08:30:41;22.00;;;11.93;;
70543;SDS011;58097;48.364;-1.224;2023-01-28T08:33:07;25.42;;;12.52;;
70543;SDS011;58097;48.364;-1.224;2023-01-28T08:35:33;21.83;;;12.52;;
70543;SDS011;58097;48.364;-1.224;2023-01-28T08:38:00;24.13;;;12.77;;
70543;SDS011;58097;48.364;-1.224;2023-01-28T08:40:26;22.63;;;12.85;;
70543;SDS011;58097;48.364;-1.224;2023-01-28T08:42:52;20.27;;;12.20;;
70543;SDS011;58097;48.364;-1.224;2023-01-28T08:45:19;20.10;;;12.07;;
70543;SDS011;58097;48.364;-1.224;2023-01-28T08:47:53;27.33;;;13.07;;
70543;SDS011;58097;48.364;-1.224;2023-01-28T08:50:20;24.95;;;13.73;;
70543;SDS011;58097;48.364;-1.224;2023-01-28T08:52:46;22.60;;;12.82;;
70543;SDS011;58097;48.364;-1.224;2023-01-28T08:55:13;23.27;;;12.35;;
70543;SDS011;58097;48.364;-1.224;2023-01-28T08:57:39;22.80;;;12.63;;
70543;SDS011;58097;48.364;-1.224;2023-01-28T09:00:05;23.63;;;13.40;;
70543;SDS011;58097;48.364;-1.224;2023-01-28T09:02:31;24.35;;;13.32;;
70543;SDS011;58097;48.364;-1.224;2023-01-28T09:04:56;27.17;;;15.20;;
70543;SDS011;58097;48.364;-1.224;2023-01-28T09:07:22;28.17;;;14.98;;
70543;SDS011;58097;48.364;-1.224;2023-01-28T09:09:47;23.42;;;13.70;;
70543;SDS011;58097;48.364;-1.224;2023-01-28T09:12:13;26.98;;;13.80;;
70543;SDS011;58097;48.364;-1.224;2023-01-28T09:14:38;29.52;;;15.00;;
70543;SDS011;58097;48.364;-1.224;2023-01-28T09:17:04;25.67;;;14.52;;
70543;SDS011;58097;48.364;-1.224;2023-01-28T09:19:29;24.33;;;13.52;;
70543;SDS011;58097;48.364;-1.224;2023-01-28T09:21:55;29.17;;;14.50;;
70543;SDS011;58097;48.364;-1.224;2023-01-28T09:24:20;23.77;;;13.18;;
70543;SDS011;58097;48.364;-1.224;2023-01-28T09:26:49;23.25;;;13.30;;
70543;SDS011;58097;48.364;-1.224;2023-01-28T09:29:14;26.98;;;14.68;;
70543;SDS011;58097;48.364;-1.224;2023-01-28T09:31:40;27.13;;;14.35;;
70543;SDS011;58097;48.364;-1.224;2023-01-28T09:34:07;22.38;;;13.55;;
70543;SDS011;58097;48.364;-1.224;2023-01-28T09:36:33;25.48;;;13.93;;
70543;SDS011;58097;48.364;-1.224;2023-01-28T09:38:58;27.83;;;14.10;;
70543;SDS011;58097;48.364;-1.224;2023-01-28T09:41:25;23.77;;;15.10;;
70543;SDS011;58097;48.364;-1.224;2023-01-28T09:44:03;29.50;;;15.93;;
70543;SDS011;58097;48.364;-1.224;2023-01-28T09:46:47;31.95;;;16.27;;
70543;SDS011;58097;48.364;-1.224;2023-01-28T09:49:16;24.20;;;14.70;;
70543;SDS011;58097;48.364;-1.224;2023-01-28T09:51:48;27.52;;;14.88;;
70543;SDS011;58097;48.364;-1.224;2023-01-28T09:56:53;27.77;;;14.73;;
70543;SDS011;58097;48.364;-1.224;2023-01-28T09:59:29;22.88;;;12.98;;
70543;SDS011;58097;48.364;-1.224;2023-01-28T10:07:54;27.63;;;14.10;;
70543;SDS011;58097;48.364;-1.224;2023-01-28T10:10:49;18.92;;;11.73;;
70543;SDS011;58097;48.364;-1.224;2023-01-28T10:18:34;29.42;;;13.25;;
70543;SDS011;58097;48.364;-1.224;2023-01-28T10:21:52;21.20;;;12.65;;
70543;SDS011;58097;48.364;-1.224;2023-01-28T10:24:12;18.33;;;11.93;;
70543;SDS011;58097;48.364;-1.224;2023-01-28T10:26:42;23.00;;;13.13;;
70543;SDS011;58097;48.364;-1.224;2023-01-28T10:29:16;18.13;;;12.13;;
70543;SDS011;58097;48.364;-1.224;2023-01-28T10:31:54;17.65;;;11.23;;
70543;SDS011;58097;48.364;-1.224;2023-01-28T10:34:25;20.27;;;12.80;;
70543;SDS011;58097;48.364;-1.224;2023-01-28T10:36:51;18.95;;;11.60;;
70543;SDS011;58097;48.364;-1.224;2023-01-28T10:39:17;17.25;;;11.18;;
70543;SDS011;58097;48.364;-1.224;2023-01-28T10:41:45;18.00;;;11.38;;
70543;SDS011;58097;48.364;-1.224;2023-01-28T10:47:08;28.83;;;12.57;;
70543;SDS011;58097;48.364;-1.224;2023-01-28T10:49:40;20.88;;;12.02;;
70543;SDS011;58097;48.364;-1.224;2023-01-28T10:52:12;25.13;;;12.77;;
70543;SDS011;58097;48.364;-1.224;2023-01-28T10:54:39;21.77;;;13.27;;
70543;SDS011;58097;48.364;-1.224;2023-01-28T10:57:06;23.42;;;12.07;;
70543;SDS011;58097;48.364;-1.224;2023-01-28T10:59:37;16.60;;;11.63;;
70543;SDS011;58097;48.364;-1.224;2023-01-28T11:04:59;26.70;;;13.32;;
70543;SDS011;58097;48.364;-1.224;2023-01-28T11:07:26;20.65;;;11.20;;
70543;SDS011;58097;48.364;-1.224;2023-01-28T11:09:51;17.50;;;11.55;;
70543;SDS011;58097;48.364;-1.224;2023-01-28T11:14:53;15.25;;;11.02;;
70543;SDS011;58097;48.364;-1.224;2023-01-28T11:17:19;18.05;;;12.07;;
70543;SDS011;58097;48.364;-1.224;2023-01-28T11:19:48;13.77;;;9.73;;
70543;SDS011;58097;48.364;-1.224;2023-01-28T11:22:20;18.15;;;10.88;;
70543;SDS011;58097;48.364;-1.224;2023-01-28T11:24:51;18.05;;;9.98;;
70543;SDS011;58097;48.364;-1.224;2023-01-28T11:27:17;12.77;;;8.70;;
70543;SDS011;58097;48.364;-1.224;2023-01-28T11:29:46;13.73;;;9.55;;
70543;SDS011;58097;48.364;-1.224;2023-01-28T11:32:16;18.85;;;8.75;;
70543;SDS011;58097;48.364;-1.224;2023-01-28T11:34:47;12.07;;;7.38;;
70543;SDS011;58097;48.364;-1.224;2023-01-28T11:37:14;13.10;;;8.88;;
70543;SDS011;58097;48.364;-1.224;2023-01-28T11:39:40;15.13;;;9.35;;
70543;SDS011;58097;48.364;-1.224;2023-01-28T11:44:37;14.38;;;9.13;;
70543;SDS011;58097;48.364;-1.224;2023-01-28T11:55:00;14.50;;;8.95;;
70543;SDS011;58097;48.364;-1.224;2023-01-28T11:57:40;11.38;;;8.20;;
70543;SDS011;58097;48.364;-1.224;2023-01-28T12:08:19;13.32;;;8.88;;
70543;SDS011;58097;48.364;-1.224;2023-01-28T12:22:28;14.73;;;7.97;;
70543;SDS011;58097;48.364;-1.224;2023-01-28T12:27:54;12.55;;;7.85;;
70543;SDS011;58097;48.364;-1.224;2023-01-28T12:39:02;11.10;;;6.93;;
70543;SDS011;58097;48.364;-1.224;2023-01-28T12:41:52;10.07;;;6.93;;
70543;SDS011;58097;48.364;-1.224;2023-01-28T12:44:30;10.35;;;7.07;;
70543;SDS011;58097;48.364;-1.224;2023-01-28T12:46:59;14.70;;;7.82;;
70543;SDS011;58097;48.364;-1.224;2023-01-28T12:49:31;10.85;;;7.28;;
70543;SDS011;58097;48.364;-1.224;2023-01-28T12:54:38;13.00;;;7.97;;
70543;SDS011;58097;48.364;-1.224;2023-01-28T12:57:26;11.55;;;7.45;;
70543;SDS011;58097;48.364;-1.224;2023-01-28T12:59:56;11.80;;;7.95;;
70543;SDS011;58097;48.364;-1.224;2023-01-28T13:02:34;12.30;;;7.53;;
70543;SDS011;58097;48.364;-1.224;2023-01-28T13:05:08;12.82;;;6.10;;
70543;SDS011;58097;48.364;-1.224;2023-01-28T13:07:50;15.25;;;8.23;;
70543;SDS011;58097;48.364;-1.224;2023-01-28T13:12:52;8.32;;;5.80;;
70543;SDS011;58097;48.364;-1.224;2023-01-28T13:15:19;12.55;;;6.05;;
70543;SDS011;58097;48.364;-1.224;2023-01-28T13:20:57;14.27;;;7.75;;
70543;SDS011;58097;48.364;-1.224;2023-01-28T13:25:55;9.70;;;6.53;;
70543;SDS011;58097;48.364;-1.224;2023-01-28T13:28:28;13.05;;;8.45;;
70543;SDS011;58097;48.364;-1.224;2023-01-28T13:31:08;9.98;;;6.80;;
70543;SDS011;58097;48.364;-1.224;2023-01-28T13:34:03;13.23;;;8.23;;
70543;SDS011;58097;48.364;-1.224;2023-01-28T13:36:38;13.23;;;7.35;;
70543;SDS011;58097;48.364;-1.224;2023-01-28T13:41:41;6.40;;;5.57;;
70543;SDS011;58097;48.364;-1.224;2023-01-28T13:44:19;10.95;;;6.03;;
70543;SDS011;58097;48.364;-1.224;2023-01-28T13:46:51;12.82;;;6.55;;
70543;SDS011;58097;48.364;-1.224;2023-01-28T13:49:25;12.90;;;7.40;;
70543;SDS011;58097;48.364;-1.224;2023-01-28T13:54:59;13.75;;;6.32;;
70543;SDS011;58097;48.364;-1.224;2023-01-28T14:20:26;8.18;;;5.85;;
70543;SDS011;58097;48.364;-1.224;2023-01-28T14:23:03;6.88;;;5.53;;
70543;SDS011;58097;48.364;-1.224;2023-01-28T14:31:32;8.07;;;5.15;;
70543;SDS011;58097;48.364;-1.224;2023-01-28T14:34:05;10.18;;;5.70;;
70543;SDS011;58097;48.364;-1.224;2023-01-28T14:36:37;6.07;;;4.70;;
70543;SDS011;58097;48.364;-1.224;2023-01-28T14:39:05;9.00;;;5.20;;
70543;SDS011;58097;48.364;-1.224;2023-01-28T14:41:36;8.32;;;5.05;;
70543;SDS011;58097;48.364;-1.224;2023-01-28T14:44:01;7.75;;;4.68;;
70543;SDS011;58097;48.364;-1.224;2023-01-28T14:46:33;8.18;;;5.55;;
70543;SDS011;58097;48.364;-1.224;2023-01-28T14:51:51;7.10;;;5.22;;
70543;SDS011;58097;48.364;-1.224;2023-01-28T14:59:47;10.07;;;6.38;;
70543;SDS011;58097;48.364;-1.224;2023-01-28T15:02:19;11.60;;;5.57;;
70543;SDS011;58097;48.364;-1.224;2023-01-28T15:04:50;12.73;;;5.45;;
70543;SDS011;58097;48.364;-1.224;2023-01-28T15:09:43;7.45;;;5.10;;
70543;SDS011;58097;48.364;-1.224;2023-01-28T15:12:09;5.68;;;4.38;;
70543;SDS011;58097;48.364;-1.224;2023-01-28T15:14:35;8.35;;;5.07;;
70543;SDS011;58097;48.364;-1.224;2023-01-28T15:17:01;6.05;;;4.57;;
70543;SDS011;58097;48.364;-1.224;2023-01-28T15:19:31;7.05;;;4.90;;
70543;SDS011;58097;48.364;-1.224;2023-01-28T15:22:00;6.90;;;5.07;;
70543;SDS011;58097;48.364;-1.224;2023-01-28T15:24:28;14.43;;;5.78;;
70543;SDS011;58097;48.364;-1.224;2023-01-28T15:26:55;8.23;;;5.55;;
70543;SDS011;58097;48.364;-1.224;2023-01-28T15:29:31;7.60;;;4.70;;
70543;SDS011;58097;48.364;-1.224;2023-01-28T15:31:59;4.22;;;3.42;;
70543;SDS011;58097;48.364;-1.224;2023-01-28T15:34:25;8.63;;;4.05;;
70543;SDS011;58097;48.364;-1.224;2023-01-28T15:36:57;6.72;;;3.53;;
70543;SDS011;58097;48.364;-1.224;2023-01-28T15:39:25;6.55;;;4.07;;
70543;SDS011;58097;48.364;-1.224;2023-01-28T15:41:55;6.90;;;3.35;;
70543;SDS011;58097;48.364;-1.224;2023-01-28T15:44:26;5.03;;;3.80;;
70543;SDS011;58097;48.364;-1.224;2023-01-28T15:46:57;8.88;;;3.60;;
70543;SDS011;58097;48.364;-1.224;2023-01-28T15:49:26;5.78;;;3.60;;
70543;SDS011;58097;48.364;-1.224;2023-01-28T15:51:54;5.20;;;3.70;;
70543;SDS011;58097;48.364;-1.224;2023-01-28T15:54:20;5.40;;;3.92;;
70543;SDS011;58097;48.364;-1.224;2023-01-28T15:56:47;4.45;;;3.20;;
70543;SDS011;58097;48.364;-1.224;2023-01-28T15:59:16;10.10;;;4.32;;
70543;SDS011;58097;48.364;-1.224;2023-01-28T16:01:49;4.68;;;3.65;;
70543;SDS011;58097;48.364;-1.224;2023-01-28T16:04:22;5.43;;;3.58;;
70543;SDS011;58097;48.364;-1.224;2023-01-28T16:06:52;9.15;;;4.00;;
70543;SDS011;58097;48.364;-1.224;2023-01-28T16:09:23;7.45;;;3.33;;
70543;SDS011;58097;48.364;-1.224;2023-01-28T16:12:04;9.23;;;4.47;;
70543;SDS011;58097;48.364;-1.224;2023-01-28T16:14:44;8.80;;;3.30;;
70543;SDS011;58097;48.364;-1.224;2023-01-28T16:17:16;8.60;;;3.78;;
70543;SDS011;58097;48.364;-1.224;2023-01-28T16:19:46;3.17;;;2.72;;
70543;SDS011;58097;48.364;-1.224;2023-01-28T16:22:17;4.38;;;2.08;;
70543;SDS011;58097;48.364;-1.224;2023-01-28T16:24:48;4.57;;;2.63;;
70543;SDS011;58097;48.364;-1.224;2023-01-28T16:27:19;2.63;;;1.55;;
70543;SDS011;58097;48.364;-1.224;2023-01-28T16:29:46;3.53;;;1.92;;
70543;SDS011;58097;48.364;-1.224;2023-01-28T16:34:55;3.72;;;1.85;;
70543;SDS011;58097;48.364;-1.224;2023-01-28T16:37:21;4.00;;;2.10;;
70543;SDS011;58097;48.364;-1.224;2023-01-28T16:39:47;2.90;;;2.30;;
70543;SDS011;58097;48.364;-1.224;2023-01-28T16:42:13;8.18;;;2.78;;
70543;SDS011;58097;48.364;-1.224;2023-01-28T16:44:38;4.40;;;3.08;;
70543;SDS011;58097;48.364;-1.224;2023-01-28T16:47:04;5.05;;;2.72;;
70543;SDS011;58097;48.364;-1.224;2023-01-28T16:49:30;4.65;;;2.95;;
70543;SDS011;58097;48.364;-1.224;2023-01-28T16:51:55;3.08;;;2.55;;
70543;SDS011;58097;48.364;-1.224;2023-01-28T16:54:20;4.80;;;3.13;;
70543;SDS011;58097;48.364;-1.224;2023-01-28T16:56:46;8.45;;;2.13;;
70543;SDS011;58097;48.364;-1.224;2023-01-28T16:59:12;2.90;;;2.10;;
70543;SDS011;58097;48.364;-1.224;2023-01-28T17:01:39;5.35;;;2.33;;
70543;SDS011;58097;48.364;-1.224;2023-01-28T17:04:05;2.53;;;1.88;;
70543;SDS011;58097;48.364;-1.224;2023-01-28T17:06:33;6.55;;;3.60;;
70543;SDS011;58097;48.364;-1.224;2023-01-28T17:09:02;3.38;;;2.63;;